Time;durP1;ratioP1;P1;durP2;ratioP2;P2;SDS_P1;SDS_P2;PMS_P1;PMS_P2;Temp;Humidity;BMP_temperature;BMP_pressure;BME280_temperature;BME280_humidity;BME280_pressure;Samples;Min_cycle;Max_cycle;Signal;HPM_P1;HPM_P2
2023/03/26 00:01:09;;;;;;;0.70;0.70;;;;;;;13.66;100.00;99368.13;5093717;28;20217;-73
2023/03/26 00:03:37;;;;;;;0.60;0.60;;;;;;;13.65;100.00;99371.63;5093598;28;20200;-73
2023/03/26 00:06:06;;;;;;;0.60;0.60;;;;;;;13.69;100.00;99378.53;5094294;28;20259;-72
2023/03/26 00:08:34;;;;;;;0.60;0.60;;;;;;;13.65;100.00;99371.63;5093632;28;20233;-72
2023/03/26 00:11:01;;;;;;;0.52;0.52;;;;;;;13.66;100.00;99368.13;5052925;28;20191;-73
2023/03/26 00:13:31;;;;;;;0.50;0.50;;;;;;;13.54;100.00;99357.81;5084091;28;20206;-73
2023/03/26 00:15:58;;;;;;;0.60;0.60;;;;;;;13.61;100.00;99390.75;5093941;28;20660;-72
2023/03/26 00:18:29;;;;;;;0.60;0.60;;;;;;;13.50;100.00;99374.34;5093586;28;20202;-73
2023/03/26 00:20:56;;;;;;;0.60;0.60;;;;;;;13.56;100.00;99371.69;5093195;28;20194;-73
2023/03/26 00:23:24;;;;;;;0.60;0.60;;;;;;;13.65;100.00;99415.91;5093052;28;20263;-73
2023/03/26 00:25:51;;;;;;;0.60;0.60;;;;;;;13.10;100.00;99333.00;5093470;28;20202;-73
2023/03/26 00:28:20;;;;;;;0.60;0.60;;;;;;;13.49;100.00;99393.44;5057823;28;20230;-73
2023/03/26 00:30:48;;;;;;;0.70;0.70;;;;;;;13.68;100.00;99434.09;5093297;28;20352;-72
2023/03/26 00:33:20;;;;;;;0.70;0.70;;;;;;;13.51;100.00;99425.56;5093236;28;20198;-73
2023/03/26 00:35:52;;;;;;;0.60;0.60;;;;;;;13.60;100.00;99430.69;5087997;28;20194;-72
2023/03/26 00:38:21;;;;;;;0.60;0.60;;;;;;;13.50;100.00;99449.88;5093101;28;20209;-72
2023/03/26 00:40:49;;;;;;;0.60;0.60;;;;;;;13.67;100.00;99463.63;5092863;28;20193;-73
2023/03/26 00:43:18;;;;;;;0.60;0.60;;;;;;;13.66;100.00;99467.13;5058017;28;20198;-73
2023/03/26 00:45:48;;;;;;;0.60;0.60;;;;;;;13.71;100.00;99470.53;5093165;28;20236;-73
2023/03/26 00:48:15;;;;;;;0.57;0.57;;;;;;;13.47;100.00;99439.47;5093035;28;20226;-73
2023/03/26 00:50:45;;;;;;;0.60;0.60;;;;;;;13.63;100.00;99470.59;5093035;28;20194;-73
2023/03/26 00:53:12;;;;;;;0.70;0.70;;;;;;;13.51;100.00;99473.31;5093090;28;20195;-73
2023/03/26 00:55:39;;;;;;;0.60;0.60;;;;;;;13.45;100.00;99478.53;5092717;28;20222;-73
2023/03/26 00:58:09;;;;;;;0.60;0.60;;;;;;;13.39;100.00;99462.94;5089977;28;20665;-72
2023/03/26 01:00:38;;;;;;;0.60;0.60;;;;;;;13.34;100.00;99455.16;5091968;28;20220;-73
2023/03/26 01:03:07;;;;;;;0.50;0.50;;;;;;;13.25;100.00;99457.84;5088884;28;20205;-73
2023/03/26 01:05:47;;;;;;;0.50;0.50;;;;;;;13.18;100.00;99439.66;5092610;28;20550;-73
2023/03/26 01:08:30;;;;;;;0.60;0.60;;;;;;;13.30;100.00;99452.63;5092594;28;20302;-73
2023/03/26 01:11:05;;;;;;;0.93;0.93;;;;;;;13.28;100.00;99455.22;5092959;28;20283;-73
2023/03/26 01:13:35;;;;;;;0.60;0.60;;;;;;;13.31;100.00;99462.13;5092498;28;20196;-73
2023/03/26 01:16:04;;;;;;;0.70;0.70;;;;;;;13.24;100.00;99445.69;5092409;28;20213;-73
2023/03/26 01:18:39;;;;;;;0.55;0.55;;;;;;;13.25;100.00;99434.41;5092404;28;20198;-73
2023/03/26 01:21:08;;;;;;;0.70;0.70;;;;;;;13.34;100.00;99462.97;5092783;28;20293;-73
2023/03/26 01:23:43;;;;;;;0.60;0.60;;;;;;;13.34;100.00;99443.91;5092173;28;20202;-73
2023/03/26 01:26:25;;;;;;;1.27;1.17;;;;;;;13.29;100.00;99456.09;5092483;28;20200;-73
2023/03/26 01:28:55;;;;;;;0.70;0.70;;;;;;;13.35;100.00;99440.41;5091581;28;20637;-73
2023/03/26 01:31:30;;;;;;;0.65;0.65;;;;;;;13.38;100.00;99453.41;5092488;28;20198;-73
2023/03/26 01:34:04;;;;;;;0.65;0.65;;;;;;;13.32;100.00;99451.72;5091940;28;20213;-73
2023/03/26 01:36:38;;;;;;;0.60;0.60;;;;;;;13.36;100.00;99447.34;5092275;28;20212;-73
2023/03/26 01:39:09;;;;;;;0.70;0.70;;;;;;;13.29;100.00;99441.31;5091436;28;20209;-73
2023/03/26 01:41:45;;;;;;;0.60;0.60;;;;;;;13.16;100.00;99434.44;5088930;28;20248;-73
2023/03/26 01:44:20;;;;;;;0.60;0.60;;;;;;;13.06;100.00;99405.84;5056869;28;20209;-74
2023/03/26 01:46:48;;;;;;;0.63;0.63;;;;;;;13.19;100.00;99437.06;5090751;28;20224;-72
2023/03/26 01:49:15;;;;;;;0.60;0.60;;;;;;;13.09;100.00;99427.53;5091122;28;20259;-73
2023/03/26 01:51:42;;;;;;;0.60;0.60;;;;;;;13.16;100.00;99436.22;5091476;28;20202;-73
2023/03/26 01:54:13;;;;;;;0.60;0.60;;;;;;;13.25;100.00;99437.00;5085306;28;20186;-73
2023/03/26 01:56:55;;;;;;;0.90;0.90;;;;;;;13.17;100.00;99437.91;5091021;28;20194;-73
2023/03/26 02:00:00;;;;;;;0.60;0.60;;;;;;;13.16;100.00;99437.03;5053024;28;20226;-72
2023/03/26 02:02:35;;;;;;;0.60;0.60;;;;;;;13.21;100.00;99437.91;5047901;28;20718;-72
2023/03/26 02:05:09;;;;;;;0.60;0.60;;;;;;;12.77;100.00;99361.81;5048765;28;20206;-73
2023/03/26 02:07:42;;;;;;;0.50;0.50;;;;;;;13.03;100.00;99417.16;5048254;28;20225;-72
2023/03/26 02:10:13;;;;;;;0.80;0.80;;;;;;;13.13;100.00;99438.81;5048330;28;20196;-73
2023/03/26 02:12:43;;;;;;;0.60;0.60;;;;;;;13.20;100.00;99456.13;4996583;28;20891;-73
2023/03/26 02:15:12;;;;;;;0.70;0.70;;;;;;;13.03;100.00;99426.69;4998541;28;20206;-73
2023/03/26 02:17:39;;;;;;;0.60;0.60;;;;;;;13.18;100.00;99468.28;5015078;28;20192;-72
2023/03/26 02:20:09;;;;;;;0.52;0.52;;;;;;;13.20;100.00;99470.00;5064057;28;20233;-73
2023/03/26 02:22:39;;;;;;;0.60;0.60;;;;;;;13.23;100.00;99472.63;5053283;28;20293;-73
2023/03/26 02:25:08;;;;;;;0.68;0.68;;;;;;;13.22;100.00;99460.47;5090837;28;20573;-72
2023/03/26 02:27:35;;;;;;;0.65;0.65;;;;;;;13.11;100.00;99475.28;5090336;28;20257;-72
2023/03/26 02:30:05;;;;;;;0.60;0.60;;;;;;;13.14;100.00;99466.56;5091036;28;20202;-73
2023/03/26 02:32:33;;;;;;;0.60;0.60;;;;;;;12.91;100.00;99443.25;5055113;28;20194;-73
2023/03/26 02:35:00;;;;;;;0.70;0.70;;;;;;;13.01;100.00;99463.16;5090500;28;20258;-71
2023/03/26 02:37:29;;;;;;;0.70;0.70;;;;;;;13.02;100.00;99457.03;5090401;28;20202;-72
2023/03/26 02:39:56;;;;;;;0.60;0.60;;;;;;;13.05;100.00;99451.84;5086185;28;20195;-73
2023/03/26 02:42:22;;;;;;;0.60;0.60;;;;;;;13.06;100.00;99463.09;5070888;28;20612;-73
2023/03/26 02:44:49;;;;;;;0.70;0.70;;;;;;;13.03;100.00;99470.94;5082324;28;20216;-72
2023/03/26 02:47:18;;;;;;;0.60;0.60;;;;;;;13.11;100.00;99472.66;5091269;28;20332;-73
2023/03/26 02:49:45;;;;;;;0.60;0.60;;;;;;;13.06;100.00;99484.78;5074494;28;20201;-73
2023/03/26 02:52:13;;;;;;;0.60;0.60;;;;;;;12.60;100.00;99413.00;5091051;28;20205;-73
2023/03/26 02:54:40;;;;;;;0.70;0.70;;;;;;;13.11;100.00;99487.41;5090963;28;20202;-73
2023/03/26 02:57:07;;;;;;;0.60;0.60;;;;;;;13.07;100.00;99478.72;5091082;28;20205;-73
2023/03/26 02:59:34;;;;;;;0.60;0.60;;;;;;;13.03;100.00;99469.19;5090641;28;20232;-73
2023/03/26 03:02:00;;;;;;;0.90;0.90;;;;;;;12.84;100.00;99447.59;5090112;28;20206;-73
2023/03/26 03:04:29;;;;;;;1.02;1.02;;;;;;;13.01;100.00;99481.38;5070782;28;20668;-73
2023/03/26 03:06:56;;;;;;;0.50;0.50;;;;;;;13.07;100.00;99489.13;5019018;28;20202;-73
2023/03/26 03:09:23;;;;;;;0.80;0.80;;;;;;;13.08;100.00;99471.78;5089624;28;20202;-73
2023/03/26 03:11:51;;;;;;;0.63;0.63;;;;;;;13.03;100.00;99497.81;5089607;28;20198;-73
2023/03/26 03:14:18;;;;;;;0.90;0.90;;;;;;;12.96;100.00;99498.72;5090559;28;20677;-73
2023/03/26 03:16:45;;;;;;;1.23;1.23;;;;;;;12.78;100.00;99476.25;5090578;28;20632;-73
2023/03/26 03:19:12;;;;;;;0.60;0.60;;;;;;;12.80;100.00;99473.66;5090172;28;20236;-72
2023/03/26 03:21:41;;;;;;;0.80;0.80;;;;;;;12.97;100.00;99492.66;5090725;28;20201;-72
2023/03/26 03:24:08;;;;;;;0.65;0.65;;;;;;;12.90;100.00;99493.56;5090530;28;20201;-72
2023/03/26 03:26:36;;;;;;;0.77;0.77;;;;;;;12.76;100.00;99479.72;5093503;28;20665;-73
2023/03/26 03:29:03;;;;;;;0.80;0.80;;;;;;;12.69;100.00;99483.22;5094279;28;20692;-73
2023/03/26 03:31:30;;;;;;;0.70;0.70;;;;;;;12.75;100.00;99498.78;5093779;28;20198;-74
2023/03/26 03:33:57;;;;;;;0.70;0.70;;;;;;;12.77;100.00;99507.47;5093426;28;20198;-72
2023/03/26 03:36:26;;;;;;;0.57;0.57;;;;;;;12.68;100.00;99502.28;5094468;28;20285;-73
2023/03/26 03:38:54;;;;;;;0.70;0.70;;;;;;;12.83;100.00;99502.25;5089753;28;20289;-74
2023/03/26 03:41:21;;;;;;;0.93;0.93;;;;;;;12.78;100.00;99498.78;5058745;28;20206;-73
2023/03/26 03:43:48;;;;;;;0.70;0.70;;;;;;;12.71;100.00;99494.47;5094079;28;20190;-73
2023/03/26 03:46:15;;;;;;;0.60;0.60;;;;;;;12.79;100.00;99495.31;5093874;28;20210;-73
2023/03/26 03:48:47;;;;;;;0.60;0.60;;;;;;;12.70;100.00;99493.59;5093974;28;20221;-73
2023/03/26 03:51:13;;;;;;;0.70;0.70;;;;;;;12.69;100.00;99504.91;5094135;28;20202;-74
2023/03/26 03:53:40;;;;;;;0.65;0.65;;;;;;;12.61;100.00;99495.38;5058345;28;20194;-73
2023/03/26 03:56:09;;;;;;;0.63;0.63;;;;;;;12.74;100.00;99487.53;5083092;28;20315;-72
2023/03/26 03:58:36;;;;;;;0.70;0.70;;;;;;;12.35;100.00;99436.50;5089464;28;20310;-73
2023/03/26 04:01:03;;;;;;;0.70;0.70;;;;;;;12.79;100.00;99516.13;5045201;28;20198;-73
2023/03/26 04:03:30;;;;;;;0.70;0.70;;;;;;;12.69;100.00;99506.63;5094108;28;20649;-73
2023/03/26 04:05:57;;;;;;;0.70;0.70;;;;;;;12.78;100.00;99519.59;5093672;28;20198;-72
2023/03/26 04:08:24;;;;;;;0.70;0.70;;;;;;;12.68;100.00;99518.75;5093397;28;20217;-73
2023/03/26 04:10:51;;;;;;;0.90;0.90;;;;;;;12.68;100.00;99525.69;5093545;28;20198;-72
2023/03/26 04:13:20;;;;;;;0.60;0.60;;;;;;;12.72;100.00;99520.50;5093089;28;20220;-72
2023/03/26 04:15:47;;;;;;;0.80;0.80;;;;;;;12.65;100.00;99531.78;5092611;28;20275;-73
2023/03/26 04:18:14;;;;;;;0.60;0.60;;;;;;;12.55;100.00;99531.81;5093364;28;20194;-73
2023/03/26 04:20:45;;;;;;;0.50;0.50;;;;;;;12.65;100.00;99518.78;5093672;28;20194;-73
2023/03/26 04:23:13;;;;;;;0.70;0.70;;;;;;;12.45;100.00;99504.09;5084132;28;20666;-73
2023/03/26 04:25:41;;;;;;;0.60;0.60;;;;;;;12.54;100.00;99524.88;5073324;28;20618;-73
2023/03/26 04:28:10;;;;;;;0.55;0.55;;;;;;;12.56;100.00;99523.97;5073483;28;20231;-72
2023/03/26 04:30:41;;;;;;;0.70;0.70;;;;;;;12.35;100.00;99513.63;5092561;28;20217;-72
2023/03/26 04:33:14;;;;;;;0.65;0.65;;;;;;;12.53;100.00;99523.13;5093225;28;20194;-72
2023/03/26 04:35:43;;;;;;;0.55;0.55;;;;;;;12.48;100.00;99515.34;5092625;28;20669;-73
2023/03/26 04:38:11;;;;;;;1.35;1.25;;;;;;;12.56;100.00;99533.50;5092841;28;20202;-72
2023/03/26 04:40:38;;;;;;;0.60;0.60;;;;;;;12.59;100.00;99534.38;5040444;28;20194;-72
2023/03/26 04:43:05;;;;;;;0.70;0.70;;;;;;;12.59;100.00;99533.53;5093004;28;20197;-73
2023/03/26 04:45:32;;;;;;;0.63;0.63;;;;;;;12.41;100.00;99539.63;5093367;28;20688;-74
2023/03/26 04:48:01;;;;;;;0.90;0.90;;;;;;;12.50;100.00;99546.53;5092951;28;20221;-74
2023/03/26 04:50:28;;;;;;;0.60;0.60;;;;;;;12.40;100.00;99541.34;5093281;28;20198;-73
2023/03/26 04:52:57;;;;;;;0.68;0.68;;;;;;;12.42;100.00;99556.94;5092468;28;20589;-74
2023/03/26 04:55:28;;;;;;;0.65;0.65;;;;;;;12.36;100.00;99563.03;5093064;28;20206;-72
2023/03/26 04:58:02;;;;;;;0.70;0.70;;;;;;;12.26;100.00;99556.09;5092994;28;20203;-73
2023/03/26 05:00:29;;;;;;;0.60;0.60;;;;;;;12.29;100.00;99587.28;5093098;28;20198;-73
2023/03/26 05:02:56;;;;;;;0.70;0.70;;;;;;;12.33;100.00;99586.44;5092443;28;20197;-73
2023/03/26 05:05:26;;;;;;;0.70;0.70;;;;;;;12.43;100.00;99598.56;5093280;28;20258;-73
2023/03/26 05:07:53;;;;;;;0.68;0.68;;;;;;;12.21;100.00;99586.41;5092316;28;20218;-73
2023/03/26 05:10:20;;;;;;;0.80;0.80;;;;;;;12.22;100.00;99606.34;5092751;28;20205;-73
2023/03/26 05:12:47;;;;;;;0.60;0.60;;;;;;;12.29;100.00;99608.09;5092169;28;20213;-73
2023/03/26 05:15:15;;;;;;;0.80;0.80;;;;;;;12.33;100.00;99615.03;5092554;28;20209;-72
2023/03/26 05:17:42;;;;;;;0.70;0.70;;;;;;;12.25;100.00;99619.34;5092051;28;20205;-73
2023/03/26 05:20:19;;;;;;;0.60;0.60;;;;;;;12.22;100.00;99616.75;5092790;28;20198;-73
2023/03/26 05:22:48;;;;;;;0.90;0.90;;;;;;;12.31;100.00;99623.66;5092311;28;20201;-73
2023/03/26 05:25:15;;;;;;;0.60;0.60;;;;;;;12.20;100.00;99596.81;5092474;28;20202;-72
2023/03/26 05:27:42;;;;;;;0.60;0.60;;;;;;;12.26;100.00;99615.88;5092036;28;20304;-73
2023/03/26 05:30:13;;;;;;;0.70;0.70;;;;;;;12.28;100.00;99602.88;5054405;28;20202;-72
2023/03/26 05:32:40;;;;;;;0.80;0.80;;;;;;;12.31;100.00;99608.06;5090334;28;20684;-72
2023/03/26 05:35:08;;;;;;;0.63;0.63;;;;;;;12.39;100.00;99615.00;5082465;28;20205;-72
2023/03/26 05:37:36;;;;;;;0.60;0.60;;;;;;;12.38;100.00;99620.19;5031087;28;20191;-73
2023/03/26 05:40:10;;;;;;;0.60;0.60;;;;;;;12.32;100.00;99615.88;5086788;28;20566;-73
2023/03/26 05:42:38;;;;;;;0.63;0.63;;;;;;;12.13;100.00;99598.53;5033867;28;20190;-73
2023/03/26 05:45:05;;;;;;;0.73;0.73;;;;;;;12.24;100.00;99633.19;5085978;28;20668;-73
2023/03/26 05:47:32;;;;;;;0.70;0.70;;;;;;;12.16;100.00;99623.66;5033141;28;20946;-73
2023/03/26 05:50:00;;;;;;;0.63;0.63;;;;;;;11.94;100.00;99596.78;5091380;28;20225;-72
2023/03/26 05:52:27;;;;;;;0.63;0.63;;;;;;;12.02;100.00;99625.38;5091034;28;20206;-72
2023/03/26 05:54:54;;;;;;;0.68;0.68;;;;;;;12.07;100.00;99629.72;5091100;28;20198;-72
2023/03/26 05:57:22;;;;;;;0.80;0.80;;;;;;;12.22;100.00;99616.75;5084772;28;20202;-70
2023/03/26 05:59:49;;;;;;;0.90;0.90;;;;;;;12.26;100.00;99633.22;5091103;28;20230;-72
2023/03/26 06:02:16;;;;;;;0.80;0.80;;;;;;;12.21;100.00;99632.31;5051658;28;20255;-73
2023/03/26 06:04:44;;;;;;;1.00;1.00;;;;;;;11.93;100.00;99556.06;5089294;28;20683;-75
2023/03/26 06:07:11;;;;;;;0.70;0.70;;;;;;;12.55;100.00;99615.00;5081714;28;20264;-74
2023/03/26 06:09:39;;;;;;;0.60;0.60;;;;;;;12.82;100.00;99647.06;5090244;28;20228;-74
2023/03/26 06:12:07;;;;;;;1.15;1.15;;;;;;;12.91;100.00;99638.41;5091288;28;20221;-72
2023/03/26 06:14:36;;;;;;;2.13;1.20;;;;;;;13.08;100.00;99636.63;5089960;28;20206;-71
2023/03/26 06:17:03;;;;;;;0.73;0.73;;;;;;;12.91;100.00;99620.19;5089113;28;20213;-69
2023/03/26 06:19:29;;;;;;;0.60;0.60;;;;;;;13.35;100.00;99646.97;5090905;28;20206;-73
2023/03/26 06:21:56;;;;;;;0.70;0.70;;;;;;;13.48;100.00;99639.13;5091123;28;20198;-75
2023/03/26 06:24:23;;;;;;;0.70;0.70;;;;;;;13.37;100.00;99621.81;5090823;28;20194;-73
2023/03/26 06:26:51;;;;;;;0.60;0.60;;;;;;;13.66;100.00;99652.94;5088779;28;20206;-70
2023/03/26 06:29:18;;;;;;;1.25;1.25;;;;;;;13.66;100.00;99654.69;5091050;28;20565;-69
2023/03/26 06:31:46;;;;;;;0.80;0.80;;;;;;;13.72;100.00;99659.88;5038427;28;20210;-73
2023/03/26 06:34:13;;;;;;;0.50;0.50;;;;;;;13.49;100.00;99667.75;5090395;28;20198;-73
2023/03/26 06:36:39;;;;;;;2.88;1.60;;;;;;;13.45;100.00;99667.81;5033933;28;20605;-75
2023/03/26 06:39:06;;;;;;;0.60;0.60;;;;;;;13.49;100.00;99640.84;5060640;28;20203;-74
2023/03/26 06:41:34;;;;;;;0.80;0.80;;;;;;;13.65;100.00;99665.97;5088848;28;20278;-74
2023/03/26 06:44:01;;;;;;;0.70;0.70;;;;;;;12.52;100.00;99513.63;5089277;28;20198;-73
2023/03/26 06:46:28;;;;;;;0.60;0.60;;;;;;;13.44;100.00;99684.28;5090786;28;20206;-74
2023/03/26 06:48:56;;;;;;;0.75;0.75;;;;;;;13.35;100.00;99673.03;5090325;28;20222;-72
2023/03/26 06:51:23;;;;;;;0.60;0.60;;;;;;;13.45;100.00;99673.84;5090727;28;20211;-72
2023/03/26 06:53:49;;;;;;;0.70;0.70;;;;;;;13.57;100.00;99679.03;5090578;28;20209;-70
2023/03/26 06:56:16;;;;;;;0.60;0.60;;;;;;;13.69;100.00;99685.94;5090706;28;20210;-72
2023/03/26 06:58:43;;;;;;;0.60;0.60;;;;;;;13.67;100.00;99687.66;5090784;28;20708;-72
2023/03/26 07:01:10;;;;;;;0.60;0.60;;;;;;;13.66;100.00;99658.13;5090988;28;20194;-73
2023/03/26 07:03:36;;;;;;;0.73;0.73;;;;;;;13.44;100.00;99590.53;5091929;28;20209;-72
2023/03/26 07:06:05;;;;;;;0.70;0.70;;;;;;;13.82;100.00;99666.75;5090880;28;20206;-73
2023/03/26 07:08:32;;;;;;;0.57;0.57;;;;;;;13.97;100.00;99679.72;5092184;28;20225;-76
2023/03/26 07:10:59;;;;;;;0.82;0.82;;;;;;;13.47;95.97;99600.94;5092146;28;20198;-69
2023/03/26 07:13:26;;;;;;;0.63;0.63;;;;;;;13.76;96.41;99679.84;5090554;28;20259;-70
2023/03/26 07:15:52;;;;;;;0.80;0.80;;;;;;;13.72;98.74;99654.66;5089567;28;20703;-73
2023/03/26 07:18:19;;;;;;;0.52;0.52;;;;;;;14.03;98.38;99671.00;5071876;28;20699;-73
2023/03/26 07:20:47;;;;;;;0.82;0.82;;;;;;;13.66;97.72;99594.78;5086582;28;20294;-74
2023/03/26 07:23:18;;;;;;;0.68;0.68;;;;;;;14.26;94.57;99670.00;5076876;28;20276;-73
2023/03/26 07:25:46;;;;;;;0.60;0.60;;;;;;;14.21;93.79;99653.50;5089610;28;20204;-74
2023/03/26 07:28:23;;;;;;;1.08;1.08;;;;;;;14.45;91.59;99672.53;5082071;28;20236;-74
2023/03/26 07:30:59;;;;;;;0.95;0.90;;;;;;;14.39;91.41;99671.66;5079603;28;20753;-72
2023/03/26 07:33:31;;;;;;;0.60;0.60;;;;;;;14.57;89.92;99682.84;5085932;28;20208;-74
2023/03/26 07:36:07;;;;;;;0.60;0.60;;;;;;;14.62;88.30;99689.78;5083290;28;20256;-74
2023/03/26 07:38:53;;;;;;;0.60;0.60;;;;;;;14.63;84.41;99680.19;5054949;28;20226;-73
2023/03/26 07:41:30;;;;;;;0.60;0.60;;;;;;;14.69;85.02;99685.38;5085245;28;20202;-75
2023/03/26 07:44:11;;;;;;;0.60;0.60;;;;;;;14.80;83.73;99676.56;5077100;28;20221;-73
2023/03/26 07:46:40;;;;;;;0.60;0.60;;;;;;;14.85;82.37;99692.19;5085590;28;20673;-74
2023/03/26 07:49:11;;;;;;;0.60;0.60;;;;;;;15.15;82.18;99691.91;5089827;28;20232;-74
2023/03/26 07:51:38;;;;;;;0.60;0.60;;;;;;;15.15;81.54;99694.53;5082864;28;20203;-69
2023/03/26 07:54:10;;;;;;;1.42;1.42;;;;;;;15.20;79.38;99689.25;5086988;28;20203;-71
2023/03/26 07:56:40;;;;;;;0.65;0.65;;;;;;;15.17;78.25;99686.66;5079634;28;20198;-74
2023/03/26 07:59:19;;;;;;;0.63;0.63;;;;;;;15.20;78.05;99684.88;5082915;28;20235;-73
2023/03/26 08:01:56;;;;;;;0.60;0.60;;;;;;;15.33;77.00;99693.47;5083692;28;20225;-74
2023/03/26 08:04:48;;;;;;;0.70;0.70;;;;;;;15.32;76.45;99695.22;5076444;28;20373;-73
2023/03/26 08:07:24;;;;;;;0.70;0.70;;;;;;;15.36;76.48;99696.91;5005794;28;20293;-73
2023/03/26 08:10:03;;;;;;;0.60;0.60;;;;;;;15.68;73.64;99696.59;5007461;28;20224;-73
2023/03/26 08:12:42;;;;;;;0.60;0.60;;;;;;;16.24;76.30;99706.31;5008241;28;20193;-73
2023/03/26 08:15:17;;;;;;;0.70;0.70;;;;;;;16.21;69.15;99701.13;5007472;28;20288;-74
2023/03/26 08:17:49;;;;;;;0.50;0.50;;;;;;;15.91;71.70;99706.75;5004597;28;20668;-74
2023/03/26 08:20:27;;;;;;;0.50;0.50;;;;;;;15.92;71.57;99705.00;5008500;28;20212;-73
2023/03/26 08:23:01;;;;;;;0.60;0.60;;;;;;;16.30;71.08;99710.63;5011128;28;20296;-74
2023/03/26 08:25:33;;;;;;;0.60;0.60;;;;;;;15.19;69.99;99533.44;5010427;28;20247;-72
2023/03/26 08:28:26;;;;;;;0.63;0.63;;;;;;;16.18;70.45;99721.22;5010614;28;20985;-73
2023/03/26 08:30:54;;;;;;;0.60;0.60;;;;;;;15.94;69.65;99732.88;5011414;28;20367;-73
2023/03/26 08:33:21;;;;;;;0.70;0.70;;;;;;;15.83;69.89;99696.41;5010229;28;20292;-73
2023/03/26 08:35:49;;;;;;;0.60;0.60;;;;;;;16.04;70.63;99703.13;5010628;28;20205;-72
2023/03/26 08:38:18;;;;;;;0.60;0.60;;;;;;;15.96;72.39;99686.66;5009062;28;20965;-72
2023/03/26 08:41:27;;;;;;;0.60;0.60;;;;;;;16.06;68.93;99701.31;5010857;28;20212;-73
2023/03/26 08:44:27;;;;;;;0.50;0.50;;;;;;;16.10;67.80;99718.72;5035315;28;20289;-74
2023/03/26 08:47:26;;;;;;;0.50;0.50;;;;;;;16.16;67.59;99707.31;5088664;28;20199;-71
2023/03/26 08:50:36;;;;;;;0.60;0.60;;;;;;;16.07;68.24;99718.75;5086963;28;20228;-73
2023/03/26 08:53:38;;;;;;;0.65;0.65;;;;;;;16.13;69.57;99705.59;5010606;28;20208;-74
2023/03/26 08:56:12;;;;;;;0.65;0.65;;;;;;;16.13;70.19;99713.44;5000419;28;20209;-74
2023/03/26 08:59:09;;;;;;;0.60;0.60;;;;;;;16.34;66.78;99713.13;5010155;28;20252;-73
2023/03/26 09:02:00;;;;;;;0.63;0.63;;;;;;;16.24;65.29;99694.97;4945372;29;20725;-73
2023/03/26 09:04:57;;;;;;;0.60;0.60;;;;;;;16.32;63.18;99704.47;4873541;29;20216;-74
2023/03/26 09:07:57;;;;;;;0.80;0.80;;;;;;;16.44;63.76;99697.31;4816772;29;20243;-74
2023/03/26 09:10:46;;;;;;;0.57;0.57;;;;;;;16.57;64.34;99688.41;4733107;30;20250;-73
2023/03/26 09:13:48;;;;;;;0.63;0.63;;;;;;;16.74;64.28;99684.66;4745988;30;20286;-74
2023/03/26 09:16:38;;;;;;;0.60;0.60;;;;;;;16.93;64.53;99679.97;4734282;30;21197;-77
2023/03/26 09:19:34;;;;;;;0.60;0.60;;;;;;;16.93;63.38;99679.97;4751088;30;20230;-76
2023/03/26 09:22:42;;;;;;;0.60;0.60;;;;;;;16.89;62.34;99683.53;4755990;30;20667;-77
2023/03/26 09:25:25;;;;;;;0.70;0.70;;;;;;;16.83;60.31;99681.91;4737926;30;20206;-79
2023/03/26 09:28:20;;;;;;;0.60;0.60;;;;;;;16.88;60.04;99684.41;4753491;30;20260;-78
2023/03/26 09:31:38;;;;;;;0.63;0.63;;;;;;;17.04;62.52;99664.94;4785255;29;20232;-74
2023/03/26 09:34:24;;;;;;;0.50;0.50;;;;;;;17.04;62.72;99670.19;4779938;30;20213;-74
2023/03/26 09:36:56;;;;;;;1.50;1.50;;;;;;;17.01;58.26;99659.75;4791487;29;20209;-78
2023/03/26 09:39:36;;;;;;;0.80;0.80;;;;;;;17.08;55.52;99661.38;4828238;29;20211;-76
2023/03/26 09:42:15;;;;;;;0.70;0.70;;;;;;;17.09;56.61;99670.94;4883423;29;20280;-77
2023/03/26 09:45:10;;;;;;;0.60;0.60;;;;;;;16.97;58.18;99673.78;4918300;29;20218;-74
2023/03/26 09:48:07;;;;;;;0.60;0.60;;;;;;;17.05;58.27;99663.19;4958658;28;20206;-73
2023/03/26 09:51:08;;;;;;;0.60;0.60;;;;;;;17.03;59.12;99647.47;4988890;28;20307;-74
2023/03/26 09:54:00;;;;;;;0.60;0.60;;;;;;;17.01;57.67;99635.31;4986702;28;20214;-73
2023/03/26 09:56:41;;;;;;;0.60;0.60;;;;;;;17.15;58.04;99646.41;4989161;28;20293;-71
2023/03/26 09:59:23;;;;;;;0.60;0.60;;;;;;;17.17;57.72;99645.47;4982550;28;20264;-76
2023/03/26 10:02:03;;;;;;;0.60;0.60;;;;;;;17.22;55.45;99646.25;4984398;28;20209;-79
2023/03/26 10:04:50;;;;;;;0.60;0.60;;;;;;;17.46;57.51;99630.94;5013708;28;20279;-72
2023/03/26 10:07:41;;;;;;;0.70;0.70;;;;;;;17.46;55.90;99636.19;5082407;28;20205;-74
2023/03/26 10:10:19;;;;;;;0.52;0.52;;;;;;;17.54;55.93;99636.91;5087018;28;20218;-73
2023/03/26 10:12:52;;;;;;;0.60;0.60;;;;;;;17.62;56.25;99627.16;5086761;28;20668;-72
2023/03/26 10:15:31;;;;;;;0.70;0.70;;;;;;;17.54;54.06;99636.91;5090732;28;20221;-72
2023/03/26 10:18:09;;;;;;;0.80;0.80;;;;;;;17.60;52.89;99634.19;5085625;28;20189;-73
2023/03/26 10:20:52;;;;;;;0.75;0.75;;;;;;;17.59;51.91;99637.69;5090341;28;20205;-73
2023/03/26 10:23:44;;;;;;;0.80;0.80;;;;;;;17.89;52.00;99625.69;5090678;28;20782;-73
2023/03/26 10:26:46;;;;;;;0.65;0.65;;;;;;;17.93;50.34;99633.47;5090648;28;20209;-73
2023/03/26 10:29:33;;;;;;;0.50;0.50;;;;;;;17.56;50.73;99614.13;5019566;28;20211;-73
2023/03/26 10:32:16;;;;;;;0.50;0.50;;;;;;;17.68;50.84;99621.78;5003113;28;20196;-71
2023/03/26 10:34:58;;;;;;;0.98;0.98;;;;;;;17.62;51.86;99614.06;4976078;28;20204;-78
2023/03/26 10:37:40;;;;;;;0.60;0.60;;;;;;;17.46;50.29;99631.81;5019626;28;20322;-72
2023/03/26 10:40:22;;;;;;;0.70;0.70;;;;;;;17.43;48.65;99620.53;5014029;28;20199;-71
2023/03/26 10:43:26;;;;;;;0.57;0.57;;;;;;;17.41;46.85;99617.91;5016248;28;20222;-73
2023/03/26 10:46:25;;;;;;;0.70;0.70;;;;;;;17.66;48.51;99623.56;5007496;28;20295;-70
2023/03/26 10:49:20;;;;;;;0.60;0.60;;;;;;;17.74;50.56;99637.38;4926083;29;20652;-71
2023/03/26 10:51:50;;;;;;;0.60;0.60;;;;;;;17.58;51.54;99625.50;4924364;29;20218;-71
2023/03/26 10:54:30;;;;;;;0.60;0.60;;;;;;;17.61;53.11;99599.22;4927484;29;20215;-72
2023/03/26 10:56:57;;;;;;;0.50;0.50;;;;;;;17.49;52.61;99599.41;4929805;29;20716;-72
2023/03/26 10:59:27;;;;;;;2.45;1.25;;;;;;;17.39;51.21;99616.22;4895244;29;20247;-72
2023/03/26 11:02:04;;;;;;;0.60;0.60;;;;;;;17.19;49.71;99614.84;4924554;29;20212;-72
2023/03/26 11:04:44;;;;;;;0.60;0.60;;;;;;;17.44;50.85;99611.78;4920356;29;20218;-71
2023/03/26 11:07:21;;;;;;;0.50;0.50;;;;;;;17.03;51.58;99592.47;4979038;28;20205;-72
2023/03/26 11:09:58;;;;;;;0.45;0.45;;;;;;;17.18;51.17;99591.31;4988023;28;20362;-72
2023/03/26 11:12:32;;;;;;;0.60;0.60;;;;;;;17.46;50.74;99594.25;4987961;28;20305;-71
2023/03/26 11:15:21;;;;;;;0.57;0.57;;;;;;;17.58;51.11;99573.06;4988312;28;20602;-72
2023/03/26 11:17:58;;;;;;;0.60;0.60;;;;;;;17.45;52.27;99595.13;4974857;28;20236;-72
2023/03/26 11:20:35;;;;;;;0.52;0.52;;;;;;;17.67;52.92;99575.47;4988015;28;20212;-72
2023/03/26 11:23:23;;;;;;;0.60;0.60;;;;;;;17.77;53.12;99569.13;4985360;28;20578;-71
2023/03/26 11:26:04;;;;;;;0.60;0.60;;;;;;;18.15;51.16;99590.13;4974409;28;20217;-72
2023/03/26 11:28:55;;;;;;;0.70;0.70;;;;;;;18.15;50.14;99579.63;5022597;28;20703;-71
2023/03/26 11:31:35;;;;;;;0.50;0.50;;;;;;;18.27;49.98;99566.19;5020793;28;20306;-72
2023/03/26 11:34:06;;;;;;;0.50;0.50;;;;;;;18.31;49.85;99572.22;5027252;28;20224;-71
2023/03/26 11:36:39;;;;;;;0.60;0.60;;;;;;;18.25;50.11;99552.25;5018932;28;20320;-73
2023/03/26 11:39:12;;;;;;;1.20;1.20;;;;;;;18.43;50.10;99569.31;5025614;28;20200;-72
2023/03/26 11:41:40;;;;;;;0.60;0.60;;;;;;;18.20;50.68;99562.00;5026084;28;20196;-73
2023/03/26 11:44:18;;;;;;;0.70;0.70;;;;;;;18.24;50.16;99550.53;5019264;28;20760;-73
2023/03/26 11:46:48;;;;;;;0.60;0.60;;;;;;;18.21;48.38;99553.22;5023336;28;20207;-74
2023/03/26 11:49:19;;;;;;;0.60;0.60;;;;;;;18.22;47.72;99533.97;5020309;28;20758;-72
2023/03/26 11:51:47;;;;;;;0.60;0.60;;;;;;;18.20;46.38;99540.13;5019548;28;20575;-73
2023/03/26 11:54:15;;;;;;;0.60;0.60;;;;;;;17.95;46.12;99526.75;5021283;28;20600;-71
2023/03/26 11:56:48;;;;;;;0.60;0.60;;;;;;;17.99;47.72;99527.53;4977856;28;20283;-73
2023/03/26 11:59:17;;;;;;;0.60;0.60;;;;;;;18.14;47.23;99542.91;5030522;28;20235;-72